sensor_id;sensor_type;location;lat;lon;timestamp;pressure;altitude;pressure_sealevel;temperature;humidity
16255;BME280;8235;52.198;9.904;2022-10-04T00:02:14;101597.75;;;11.58;83.36
16255;BME280;8235;52.198;9.904;2022-10-04T00:04:45;101602.28;;;11.56;83.66
16255;BME280;8235;52.198;9.904;2022-10-04T00:07:17;101605.13;;;11.53;83.75
16255;BME280;8235;52.198;9.904;2022-10-04T00:09:46;101617.59;;;11.53;83.65
16255;BME280;8235;52.198;9.904;2022-10-04T00:12:19;101608.78;;;11.51;83.95
16255;BME280;8235;52.198;9.904;2022-10-04T00:14:50;101607.00;;;11.51;84.03
16255;BME280;8235;52.198;9.904;2022-10-04T00:17:22;101595.63;;;11.47;84.04
16255;BME280;8235;52.198;9.904;2022-10-04T00:19:51;101593.72;;;11.49;84.24
16255;BME280;8235;52.198;9.904;2022-10-04T00:22:23;101597.34;;;11.48;84.18
16255;BME280;8235;52.198;9.904;2022-10-04T00:31:14;101582.38;;;11.46;84.53
16255;BME280;8235;52.198;9.904;2022-10-04T00:33:42;101586.00;;;11.45;84.57
16255;BME280;8235;52.198;9.904;2022-10-04T00:36:36;101588.66;;;11.45;84.55
16255;BME280;8235;52.198;9.904;2022-10-04T00:39:36;101585.13;;;11.44;84.49
16255;BME280;8235;52.198;9.904;2022-10-04T00:42:19;101583.31;;;11.45;84.78
16255;BME280;8235;52.198;9.904;2022-10-04T00:44:53;101587.72;;;11.46;84.87
16255;BME280;8235;52.198;9.904;2022-10-04T00:47:27;101579.72;;;11.46;84.93
16255;BME280;8235;52.198;9.904;2022-10-04T00:50:01;101577.06;;;11.46;84.98
16255;BME280;8235;52.198;9.904;2022-10-04T00:52:32;101582.38;;;11.46;85.10
16255;BME280;8235;52.198;9.904;2022-10-04T00:55:04;101568.06;;;11.47;85.14
16255;BME280;8235;52.198;9.904;2022-10-04T00:57:36;101561.88;;;11.46;85.01
16255;BME280;8235;52.198;9.904;2022-10-04T01:00:10;101553.03;;;11.46;85.06
16255;BME280;8235;52.198;9.904;2022-10-04T01:02:48;101556.53;;;11.46;84.94
16255;BME280;8235;52.198;9.904;2022-10-04T01:05:19;101555.72;;;11.46;84.86
16255;BME280;8235;52.198;9.904;2022-10-04T01:07:50;101553.03;;;11.46;84.90
16255;BME280;8235;52.198;9.904;2022-10-04T01:10:20;101554.84;;;11.45;85.00
16255;BME280;8235;52.198;9.904;2022-10-04T01:12:52;101561.03;;;11.46;84.95
16255;BME280;8235;52.198;9.904;2022-10-04T01:15:28;101561.03;;;11.46;85.05
16255;BME280;8235;52.198;9.904;2022-10-04T01:18:08;101550.38;;;11.46;84.90
16255;BME280;8235;52.198;9.904;2022-10-04T01:20:37;101561.88;;;11.46;85.14
16255;BME280;8235;52.198;9.904;2022-10-04T01:23:08;101550.38;;;11.46;85.04
16255;BME280;8235;52.198;9.904;2022-10-04T01:25:42;101551.31;;;11.45;85.10
16255;BME280;8235;52.198;9.904;2022-10-04T01:28:09;101548.66;;;11.45;85.18
16255;BME280;8235;52.198;9.904;2022-10-04T01:30:36;101542.44;;;11.44;85.29
16255;BME280;8235;52.198;9.904;2022-10-04T01:33:02;101546.94;;;11.44;85.19
16255;BME280;8235;52.198;9.904;2022-10-04T01:35:31;101539.00;;;11.42;85.35
16255;BME280;8235;52.198;9.904;2022-10-04T01:38:00;101523.84;;;11.43;85.39
16255;BME280;8235;52.198;9.904;2022-10-04T01:40:29;101523.84;;;11.43;85.60
16255;BME280;8235;52.198;9.904;2022-10-04T01:43:00;101527.47;;;11.42;85.44
16255;BME280;8235;52.198;9.904;2022-10-04T01:45:34;101521.19;;;11.43;85.67
16255;BME280;8235;52.198;9.904;2022-10-04T01:48:05;101518.53;;;11.43;85.59
16255;BME280;8235;52.198;9.904;2022-10-04T01:50:37;101507.84;;;11.43;85.56
16255;BME280;8235;52.198;9.904;2022-10-04T01:53:12;101523.84;;;11.43;85.65
16255;BME280;8235;52.198;9.904;2022-10-04T01:55:44;101529.19;;;11.43;85.59
16255;BME280;8235;52.198;9.904;2022-10-04T01:58:16;101522.06;;;11.43;85.82
16255;BME280;8235;52.198;9.904;2022-10-04T02:00:48;101521.19;;;11.43;85.74
16255;BME280;8235;52.198;9.904;2022-10-04T02:03:19;101507.84;;;11.43;85.83
16255;BME280;8235;52.198;9.904;2022-10-04T02:05:51;101512.25;;;11.44;85.56
16255;BME280;8235;52.198;9.904;2022-10-04T02:08:24;101521.13;;;11.44;86.10
16255;BME280;8235;52.198;9.904;2022-10-04T02:10:53;101527.19;;;11.46;86.05
16255;BME280;8235;52.198;9.904;2022-10-04T02:13:21;101513.03;;;11.46;85.83
16255;BME280;8235;52.198;9.904;2022-10-04T02:15:50;101519.03;;;11.49;85.91
16255;BME280;8235;52.198;9.904;2022-10-04T02:18:19;101519.91;;;11.50;85.97
16255;BME280;8235;52.198;9.904;2022-10-04T02:20:48;101510.09;;;11.51;85.95
16255;BME280;8235;52.198;9.904;2022-10-04T02:23:17;101501.16;;;11.52;85.84
16255;BME280;8235;52.198;9.904;2022-10-04T02:25:44;101494.94;;;11.51;86.14
16255;BME280;8235;52.198;9.904;2022-10-04T02:28:12;101493.06;;;11.53;85.86
16255;BME280;8235;52.198;9.904;2022-10-04T02:30:42;101491.25;;;11.54;85.94
16255;BME280;8235;52.198;9.904;2022-10-04T02:33:29;101486.88;;;11.53;85.67
16255;BME280;8235;52.198;9.904;2022-10-04T02:35:56;101489.47;;;11.54;85.92
16255;BME280;8235;52.198;9.904;2022-10-04T02:38:26;101492.13;;;11.54;85.76
16255;BME280;8235;52.198;9.904;2022-10-04T02:40:58;101491.19;;;11.55;85.68
16255;BME280;8235;52.198;9.904;2022-10-04T02:43:32;101481.44;;;11.54;85.57
16255;BME280;8235;52.198;9.904;2022-10-04T02:46:03;101493.84;;;11.55;85.65
16255;BME280;8235;52.198;9.904;2022-10-04T02:48:36;101486.72;;;11.56;85.43
16255;BME280;8235;52.198;9.904;2022-10-04T02:51:13;101487.56;;;11.56;85.75
16255;BME280;8235;52.198;9.904;2022-10-04T02:53:49;101483.97;;;11.57;85.62
16255;BME280;8235;52.198;9.904;2022-10-04T02:56:18;101477.75;;;11.57;85.58
16255;BME280;8235;52.198;9.904;2022-10-04T02:58:48;101478.63;;;11.57;85.47
16255;BME280;8235;52.198;9.904;2022-10-04T03:01:23;101467.00;;;11.58;85.60
16255;BME280;8235;52.198;9.904;2022-10-04T03:03:52;101469.69;;;11.58;85.48
16255;BME280;8235;52.198;9.904;2022-10-04T03:06:20;101471.41;;;11.59;85.61
16255;BME280;8235;52.198;9.904;2022-10-04T03:08:50;101468.72;;;11.59;85.37
16255;BME280;8235;52.198;9.904;2022-10-04T03:11:19;101470.63;;;11.57;85.26
16255;BME280;8235;52.198;9.904;2022-10-04T03:13:49;101475.00;;;11.58;85.40
16255;BME280;8235;52.198;9.904;2022-10-04T03:16:17;101467.94;;;11.57;85.30
16255;BME280;8235;52.198;9.904;2022-10-04T03:18:45;101458.22;;;11.56;85.52
16255;BME280;8235;52.198;9.904;2022-10-04T03:21:15;101468.13;;;11.54;85.26
16255;BME280;8235;52.198;9.904;2022-10-04T03:23:44;101469.06;;;11.53;85.38
16255;BME280;8235;52.198;9.904;2022-10-04T03:26:19;101472.66;;;11.52;85.38
16255;BME280;8235;52.198;9.904;2022-10-04T03:28:50;101472.75;;;11.51;85.47
16255;BME280;8235;52.198;9.904;2022-10-04T03:31:17;101457.75;;;11.48;85.76
16255;BME280;8235;52.198;9.904;2022-10-04T03:33:45;101459.69;;;11.46;85.47
16255;BME280;8235;52.198;9.904;2022-10-04T03:36:13;101459.75;;;11.44;85.68
16255;BME280;8235;52.198;9.904;2022-10-04T03:38:42;101459.84;;;11.43;85.96
16255;BME280;8235;52.198;9.904;2022-10-04T03:41:10;101460.88;;;11.40;86.05
16255;BME280;8235;52.198;9.904;2022-10-04T03:43:43;101460.00;;;11.40;86.15
16255;BME280;8235;52.198;9.904;2022-10-04T03:46:12;101459.13;;;11.39;86.22
16255;BME280;8235;52.198;9.904;2022-10-04T03:48:42;101461.03;;;11.37;86.49
16255;BME280;8235;52.198;9.904;2022-10-04T03:51:13;101463.69;;;11.37;86.74
16255;BME280;8235;52.198;9.904;2022-10-04T03:53:43;101457.56;;;11.35;86.61
16255;BME280;8235;52.198;9.904;2022-10-04T03:56:12;101457.56;;;11.35;86.77
16255;BME280;8235;52.198;9.904;2022-10-04T03:58:41;101449.66;;;11.34;86.82
16255;BME280;8235;52.198;9.904;2022-10-04T04:01:25;101447.94;;;11.33;86.85
16255;BME280;8235;52.198;9.904;2022-10-04T04:04:00;101453.25;;;11.33;86.87
16255;BME280;8235;52.198;9.904;2022-10-04T04:06:35;101438.28;;;11.30;87.06
16255;BME280;8235;52.198;9.904;2022-10-04T04:09:03;101444.47;;;11.31;87.24
16255;BME280;8235;52.198;9.904;2022-10-04T04:11:32;101447.22;;;11.29;87.37
16255;BME280;8235;52.198;9.904;2022-10-04T04:14:02;101440.19;;;11.28;87.28
16255;BME280;8235;52.198;9.904;2022-10-04T04:16:33;101441.03;;;11.29;87.42
16255;BME280;8235;52.198;9.904;2022-10-04T04:19:01;101439.34;;;11.28;87.54
16255;BME280;8235;52.198;9.904;2022-10-04T04:21:30;101438.56;;;11.26;87.33
16255;BME280;8235;52.198;9.904;2022-10-04T04:23:58;101435.03;;;11.25;87.30
16255;BME280;8235;52.198;9.904;2022-10-04T04:26:33;101437.78;;;11.24;87.43
16255;BME280;8235;52.198;9.904;2022-10-04T04:29:06;101434.31;;;11.22;87.49
16255;BME280;8235;52.198;9.904;2022-10-04T04:31:39;101436.13;;;11.21;87.64
16255;BME280;8235;52.198;9.904;2022-10-04T04:34:16;101433.47;;;11.21;87.62
16255;BME280;8235;52.198;9.904;2022-10-04T04:36:44;101430.88;;;11.20;87.53
16255;BME280;8235;52.198;9.904;2022-10-04T04:39:14;101424.69;;;11.19;87.63
16255;BME280;8235;52.198;9.904;2022-10-04T04:42:03;101433.63;;;11.18;87.76
16255;BME280;8235;52.198;9.904;2022-10-04T04:44:30;101434.63;;;11.16;87.82
16255;BME280;8235;52.198;9.904;2022-10-04T04:46:59;101434.63;;;11.16;87.77
16255;BME280;8235;52.198;9.904;2022-10-04T04:49:27;101426.72;;;11.14;87.83
16255;BME280;8235;52.198;9.904;2022-10-04T04:51:55;101427.66;;;11.13;87.73
16255;BME280;8235;52.198;9.904;2022-10-04T04:54:24;101424.31;;;11.09;87.94
16255;BME280;8235;52.198;9.904;2022-10-04T04:56:53;101427.84;;;11.10;87.76
16255;BME280;8235;52.198;9.904;2022-10-04T04:59:21;101424.41;;;11.08;87.91
16255;BME280;8235;52.198;9.904;2022-10-04T05:01:49;101412.94;;;11.06;87.96
16255;BME280;8235;52.198;9.904;2022-10-04T05:04:19;101429.03;;;11.04;87.94
16255;BME280;8235;52.198;9.904;2022-10-04T05:06:47;101427.38;;;11.02;87.91
16255;BME280;8235;52.198;9.904;2022-10-04T05:09:22;101440.78;;;11.00;88.19
16255;BME280;8235;52.198;9.904;2022-10-04T05:11:50;101435.59;;;10.97;88.01
16255;BME280;8235;52.198;9.904;2022-10-04T05:14:18;101426.84;;;10.95;88.03
16255;BME280;8235;52.198;9.904;2022-10-04T05:16:47;101434.91;;;10.94;88.30
16255;BME280;8235;52.198;9.904;2022-10-04T05:19:18;101443.00;;;10.92;88.34
16255;BME280;8235;52.198;9.904;2022-10-04T05:21:47;101445.75;;;10.91;88.38
16255;BME280;8235;52.198;9.904;2022-10-04T05:24:20;101444.88;;;10.90;88.46
16255;BME280;8235;52.198;9.904;2022-10-04T05:26:53;101452.09;;;10.88;88.60
16255;BME280;8235;52.198;9.904;2022-10-04T05:29:23;101450.38;;;10.87;88.75
16255;BME280;8235;52.198;9.904;2022-10-04T05:31:57;101453.97;;;10.86;88.67
16255;BME280;8235;52.198;9.904;2022-10-04T05:34:31;101457.66;;;10.84;88.86
16255;BME280;8235;52.198;9.904;2022-10-04T05:37:08;101452.41;;;10.82;89.05
16255;BME280;8235;52.198;9.904;2022-10-04T05:39:43;101452.41;;;10.82;89.12
16255;BME280;8235;52.198;9.904;2022-10-04T05:42:17;101454.19;;;10.82;89.32
16255;BME280;8235;52.198;9.904;2022-10-04T05:44:49;101449.81;;;10.81;89.32
16255;BME280;8235;52.198;9.904;2022-10-04T05:47:17;101450.75;;;10.79;89.30
16255;BME280;8235;52.198;9.904;2022-10-04T05:49:51;101452.56;;;10.79;89.48
16255;BME280;8235;52.198;9.904;2022-10-04T05:52:28;101449.03;;;10.78;89.51
16255;BME280;8235;52.198;9.904;2022-10-04T05:55:19;101451.69;;;10.78;89.74
16255;BME280;8235;52.198;9.904;2022-10-04T05:57:56;101448.16;;;10.78;89.65
16255;BME280;8235;52.198;9.904;2022-10-04T06:00:30;101447.38;;;10.76;89.77
16255;BME280;8235;52.198;9.904;2022-10-04T06:03:12;101450.97;;;10.75;89.79
16255;BME280;8235;52.198;9.904;2022-10-04T06:05:49;101441.19;;;10.75;90.02
16255;BME280;8235;52.198;9.904;2022-10-04T06:08:35;101443.84;;;10.75;90.13
16255;BME280;8235;52.198;9.904;2022-10-04T06:11:18;101437.66;;;10.75;90.08
16255;BME280;8235;52.198;9.904;2022-10-04T06:14:10;101438.63;;;10.74;89.96
16255;BME280;8235;52.198;9.904;2022-10-04T06:16:53;101431.50;;;10.74;90.10
16255;BME280;8235;52.198;9.904;2022-10-04T06:19:35;101448.44;;;10.73;90.09
16255;BME280;8235;52.198;9.904;2022-10-04T06:22:16;101441.28;;;10.74;90.31
16255;BME280;8235;52.198;9.904;2022-10-04T06:24:49;101446.63;;;10.74;90.71
16255;BME280;8235;52.198;9.904;2022-10-04T06:27:22;101453.66;;;10.75;90.48
16255;BME280;8235;52.198;9.904;2022-10-04T06:29:58;101462.44;;;10.77;90.84
16255;BME280;8235;52.198;9.904;2022-10-04T06:32:49;101470.28;;;10.80;90.69
16255;BME280;8235;52.198;9.904;2022-10-04T06:35:37;101469.25;;;10.83;90.99
16255;BME280;8235;52.198;9.904;2022-10-04T06:44:49;101480.47;;;10.89;90.74
16255;BME280;8235;52.198;9.904;2022-10-04T06:47:33;101473.25;;;10.91;90.87
16255;BME280;8235;52.198;9.904;2022-10-04T06:50:14;101471.34;;;10.93;91.06
16255;BME280;8235;52.198;9.904;2022-10-04T06:52:53;101478.25;;;10.97;90.91
16255;BME280;8235;52.198;9.904;2022-10-04T06:55:49;101480.69;;;11.02;91.24
16255;BME280;8235;52.198;9.904;2022-10-04T06:58:34;101482.34;;;11.04;91.35
16255;BME280;8235;52.198;9.904;2022-10-04T07:01:18;101485.72;;;11.08;91.47
16255;BME280;8235;52.198;9.904;2022-10-04T07:03:52;101488.13;;;11.12;91.25
16255;BME280;8235;52.198;9.904;2022-10-04T07:06:22;101485.28;;;11.16;91.37
16255;BME280;8235;52.198;9.904;2022-10-04T07:08:52;101486.88;;;11.20;91.39
16255;BME280;8235;52.198;9.904;2022-10-04T07:11:27;101479.56;;;11.23;91.44
16255;BME280;8235;52.198;9.904;2022-10-04T07:13:59;101475.81;;;11.27;91.44
16255;BME280;8235;52.198;9.904;2022-10-04T07:16:41;101469.41;;;11.30;91.28
16255;BME280;8235;52.198;9.904;2022-10-04T07:19:29;101466.50;;;11.34;91.18
16255;BME280;8235;52.198;9.904;2022-10-04T07:22:07;101469.03;;;11.37;91.00
16255;BME280;8235;52.198;9.904;2022-10-04T07:24:58;101465.34;;;11.40;90.95
16255;BME280;8235;52.198;9.904;2022-10-04T07:27:31;101458.81;;;11.45;91.01
16255;BME280;8235;52.198;9.904;2022-10-04T07:30:02;101459.50;;;11.49;91.30
16255;BME280;8235;52.198;9.904;2022-10-04T07:32:33;101457.44;;;11.54;91.04
16255;BME280;8235;52.198;9.904;2022-10-04T07:35:03;101456.34;;;11.58;91.35
16255;BME280;8235;52.198;9.904;2022-10-04T07:37:47;101455.03;;;11.65;91.28
16255;BME280;8235;52.198;9.904;2022-10-04T07:40:21;101447.41;;;11.75;91.80
16255;BME280;8235;52.198;9.904;2022-10-04T07:42:52;101457.50;;;11.86;92.00
16255;BME280;8235;52.198;9.904;2022-10-04T07:45:26;101450.81;;;11.94;91.84
16255;BME280;8235;52.198;9.904;2022-10-04T07:48:03;101461.81;;;12.04;91.42
16255;BME280;8235;52.198;9.904;2022-10-04T07:50:33;101458.72;;;12.11;91.13
16255;BME280;8235;52.198;9.904;2022-10-04T07:53:06;101466.28;;;12.19;90.71
16255;BME280;8235;52.198;9.904;2022-10-04T07:55:42;101466.72;;;12.27;89.89
16255;BME280;8235;52.198;9.904;2022-10-04T07:58:19;101472.50;;;12.35;89.37
16255;BME280;8235;52.198;9.904;2022-10-04T08:00:51;101475.56;;;12.43;88.89
16255;BME280;8235;52.198;9.904;2022-10-04T08:06:11;101479.91;;;12.60;88.16
16255;BME280;8235;52.198;9.904;2022-10-04T08:08:51;101472.41;;;12.67;87.75
16255;BME280;8235;52.198;9.904;2022-10-04T08:11:31;101479.97;;;12.74;86.91
16255;BME280;8235;52.198;9.904;2022-10-04T08:14:07;101471.59;;;12.80;86.46
16255;BME280;8235;52.198;9.904;2022-10-04T08:16:48;101473.03;;;12.86;85.52
16255;BME280;8235;52.198;9.904;2022-10-04T08:19:32;101482.50;;;12.92;85.63
16255;BME280;8235;52.198;9.904;2022-10-04T08:22:14;101468.66;;;12.99;85.39
16255;BME280;8235;52.198;9.904;2022-10-04T08:24:51;101468.09;;;13.08;85.22
16255;BME280;8235;52.198;9.904;2022-10-04T08:27:32;101463.09;;;13.18;84.75
16255;BME280;8235;52.198;9.904;2022-10-04T08:30:04;101464.47;;;13.25;84.27
16255;BME280;8235;52.198;9.904;2022-10-04T08:32:39;101460.44;;;13.32;83.37
16255;BME280;8235;52.198;9.904;2022-10-04T08:35:25;101462.56;;;13.41;82.85
16255;BME280;8235;52.198;9.904;2022-10-04T08:44:19;101460.22;;;13.64;80.01
16255;BME280;8235;52.198;9.904;2022-10-04T08:53:11;101459.50;;;14.03;78.07
16255;BME280;8235;52.198;9.904;2022-10-04T08:55:58;101451.41;;;14.17;76.96
16255;BME280;8235;52.198;9.904;2022-10-04T09:01:48;101452.22;;;14.46;75.00
16255;BME280;8235;52.198;9.904;2022-10-04T09:04:44;101450.31;;;14.61;74.03
16255;BME280;8235;52.198;9.904;2022-10-04T09:07:43;101456.66;;;14.72;73.10
16255;BME280;8235;52.198;9.904;2022-10-04T09:10:37;101444.25;;;14.84;71.88
16255;BME280;8235;52.198;9.904;2022-10-04T09:13:28;101452.41;;;14.95;71.11
16255;BME280;8235;52.198;9.904;2022-10-04T09:16:12;101454.47;;;15.04;71.04
16255;BME280;8235;52.198;9.904;2022-10-04T09:18:52;101450.72;;;15.19;70.75
16255;BME280;8235;52.198;9.904;2022-10-04T09:21:27;101442.00;;;15.28;70.17
16255;BME280;8235;52.198;9.904;2022-10-04T09:24:28;101448.22;;;15.42;69.78
16255;BME280;8235;52.198;9.904;2022-10-04T09:27:09;101439.31;;;15.54;69.04
16255;BME280;8235;52.198;9.904;2022-10-04T09:29:51;101443.84;;;15.66;67.95
16255;BME280;8235;52.198;9.904;2022-10-04T09:32:41;101443.19;;;15.75;67.61
16255;BME280;8235;52.198;9.904;2022-10-04T09:35:27;101450.56;;;15.84;66.94
16255;BME280;8235;52.198;9.904;2022-10-04T09:38:07;101448.41;;;15.89;65.83
16255;BME280;8235;52.198;9.904;2022-10-04T09:40:59;101448.69;;;15.97;65.83
16255;BME280;8235;52.198;9.904;2022-10-04T09:47:06;101447.97;;;16.19;64.72
16255;BME280;8235;52.198;9.904;2022-10-04T09:50:08;101449.13;;;16.28;64.69
16255;BME280;8235;52.198;9.904;2022-10-04T09:52:48;101445.75;;;16.37;64.98
16255;BME280;8235;52.198;9.904;2022-10-04T09:55:33;101447.00;;;16.44;64.69
16255;BME280;8235;52.198;9.904;2022-10-04T09:58:21;101438.00;;;16.56;64.56
16255;BME280;8235;52.198;9.904;2022-10-04T10:00:58;101438.94;;;16.68;64.42
16255;BME280;8235;52.198;9.904;2022-10-04T10:03:42;101433.72;;;16.78;63.76
16255;BME280;8235;52.198;9.904;2022-10-04T10:06:34;101436.66;;;16.86;62.99
16255;BME280;8235;52.198;9.904;2022-10-04T10:09:18;101429.09;;;16.91;62.52
16255;BME280;8235;52.198;9.904;2022-10-04T10:12:23;101413.97;;;17.01;62.06
16255;BME280;8235;52.198;9.904;2022-10-04T10:15:23;101414.31;;;17.08;61.02
16255;BME280;8235;52.198;9.904;2022-10-04T10:18:01;101414.72;;;17.14;61.07
16255;BME280;8235;52.198;9.904;2022-10-04T10:20:51;101413.72;;;17.26;61.38
16255;BME280;8235;52.198;9.904;2022-10-04T10:23:25;101411.06;;;17.38;60.44
16255;BME280;8235;52.198;9.904;2022-10-04T10:26:15;101393.16;;;17.48;59.01
16255;BME280;8235;52.198;9.904;2022-10-04T10:29:18;101395.50;;;17.52;58.29
16255;BME280;8235;52.198;9.904;2022-10-04T10:32:04;101401.38;;;17.46;58.58
16255;BME280;8235;52.198;9.904;2022-10-04T10:34:47;101413.25;;;17.44;58.33
16255;BME280;8235;52.198;9.904;2022-10-04T10:37:32;101407.13;;;17.42;58.50
16255;BME280;8235;52.198;9.904;2022-10-04T10:40:18;101398.91;;;17.43;58.07
16255;BME280;8235;52.198;9.904;2022-10-04T10:43:18;101402.84;;;17.39;57.69
16255;BME280;8235;52.198;9.904;2022-10-04T10:46:01;101407.63;;;17.35;57.74
16255;BME280;8235;52.198;9.904;2022-10-04T10:48:46;101404.66;;;17.39;57.75
16255;BME280;8235;52.198;9.904;2022-10-04T10:51:41;101400.63;;;17.44;57.63
16255;BME280;8235;52.198;9.904;2022-10-04T10:57:50;101397.81;;;17.57;57.25
16255;BME280;8235;52.198;9.904;2022-10-04T11:00:23;101395.97;;;17.57;56.97
16255;BME280;8235;52.198;9.904;2022-10-04T11:06:34;101383.38;;;17.69;56.27
16255;BME280;8235;52.198;9.904;2022-10-04T11:09:29;101373.22;;;17.73;56.73
16255;BME280;8235;52.198;9.904;2022-10-04T11:21:57;101361.81;;;17.80;56.83
16255;BME280;8235;52.198;9.904;2022-10-04T11:24:59;101366.81;;;17.85;56.94
16255;BME280;8235;52.198;9.904;2022-10-04T11:27:38;101363.63;;;17.91;56.15
16255;BME280;8235;52.198;9.904;2022-10-04T11:30:15;101358.81;;;17.94;55.83
16255;BME280;8235;52.198;9.904;2022-10-04T11:33:09;101350.16;;;17.91;56.04
16255;BME280;8235;52.198;9.904;2022-10-04T11:36:07;101350.00;;;17.92;56.02
16255;BME280;8235;52.198;9.904;2022-10-04T11:39:01;101352.69;;;17.92;55.77
16255;BME280;8235;52.198;9.904;2022-10-04T11:41:44;101347.59;;;17.89;56.00
16255;BME280;8235;52.198;9.904;2022-10-04T11:44:35;101346.44;;;17.92;55.75
16255;BME280;8235;52.198;9.904;2022-10-04T11:47:11;101339.22;;;17.92;55.40
16255;BME280;8235;52.198;9.904;2022-10-04T11:49:52;101342.31;;;17.88;55.82
16255;BME280;8235;52.198;9.904;2022-10-04T11:52:41;101342.69;;;17.83;56.12
16255;BME280;8235;52.198;9.904;2022-10-04T11:55:36;101344.41;;;17.84;56.35
16255;BME280;8235;52.198;9.904;2022-10-04T11:58:13;101335.59;;;17.82;56.52
16255;BME280;8235;52.198;9.904;2022-10-04T12:00:57;101334.00;;;17.80;56.55
16255;BME280;8235;52.198;9.904;2022-10-04T12:03:47;101335.84;;;17.79;56.76
16255;BME280;8235;52.198;9.904;2022-10-04T12:06:25;101327.03;;;17.77;56.73
16255;BME280;8235;52.198;9.904;2022-10-04T12:09:03;101331.56;;;17.77;56.73
16255;BME280;8235;52.198;9.904;2022-10-04T12:11:59;101327.03;;;17.77;56.96
16255;BME280;8235;52.198;9.904;2022-10-04T12:15:01;101317.09;;;17.78;56.85
16255;BME280;8235;52.198;9.904;2022-10-04T12:18:05;101312.69;;;17.77;57.20
16255;BME280;8235;52.198;9.904;2022-10-04T12:21:08;101311.09;;;17.74;56.62
16255;BME280;8235;52.198;9.904;2022-10-04T12:23:51;101305.59;;;17.76;56.85
16255;BME280;8235;52.198;9.904;2022-10-04T12:26:53;101299.94;;;17.79;57.29
16255;BME280;8235;52.198;9.904;2022-10-04T12:32:39;101284.75;;;17.89;56.91
16255;BME280;8235;52.198;9.904;2022-10-04T12:35:22;101288.19;;;17.91;56.22
16255;BME280;8235;52.198;9.904;2022-10-04T12:38:10;101287.44;;;17.89;56.17
16255;BME280;8235;52.198;9.904;2022-10-04T12:40:43;101274.69;;;17.91;55.84
16255;BME280;8235;52.198;9.904;2022-10-04T12:43:20;101270.72;;;17.95;54.96
16255;BME280;8235;52.198;9.904;2022-10-04T12:45:57;101260.09;;;17.93;54.80
16255;BME280;8235;52.198;9.904;2022-10-04T12:48:42;101259.22;;;17.93;54.58
16255;BME280;8235;52.198;9.904;2022-10-04T12:51:30;101250.03;;;17.95;54.63
16255;BME280;8235;52.198;9.904;2022-10-04T12:54:11;101246.09;;;17.99;54.56
16255;BME280;8235;52.198;9.904;2022-10-04T12:56:45;101237.03;;;18.00;54.27
16255;BME280;8235;52.198;9.904;2022-10-04T12:59:29;101244.72;;;18.05;54.22
16255;BME280;8235;52.198;9.904;2022-10-04T13:02:09;101246.44;;;18.06;54.08
16255;BME280;8235;52.198;9.904;2022-10-04T13:04:46;101253.41;;;18.09;53.62
16255;BME280;8235;52.198;9.904;2022-10-04T13:07:32;101245.03;;;18.12;53.46
16255;BME280;8235;52.198;9.904;2022-10-04T13:10:16;101247.59;;;18.13;53.19
16255;BME280;8235;52.198;9.904;2022-10-04T13:13:13;101240.38;;;18.14;52.87
16255;BME280;8235;52.198;9.904;2022-10-04T13:15:51;101246.50;;;18.16;53.18
16255;BME280;8235;52.198;9.904;2022-10-04T13:18:25;101240.00;;;18.18;52.91
16255;BME280;8235;52.198;9.904;2022-10-04T13:20:59;101234.59;;;18.18;52.66
16255;BME280;8235;52.198;9.904;2022-10-04T13:23:39;101237.16;;;18.20;52.90
16255;BME280;8235;52.198;9.904;2022-10-04T13:29:06;101225.13;;;18.24;52.59
16255;BME280;8235;52.198;9.904;2022-10-04T13:31:37;101223.00;;;18.27;53.05
16255;BME280;8235;52.198;9.904;2022-10-04T13:34:16;101227.28;;;18.30;53.05
16255;BME280;8235;52.198;9.904;2022-10-04T13:37:03;101216.97;;;18.35;53.12
16255;BME280;8235;52.198;9.904;2022-10-04T13:39:52;101221.38;;;18.36;52.95
16255;BME280;8235;52.198;9.904;2022-10-04T13:42:35;101224.06;;;18.36;52.75
16255;BME280;8235;52.198;9.904;2022-10-04T13:45:23;101213.28;;;18.36;53.06
16255;BME280;8235;52.198;9.904;2022-10-04T13:48:00;101217.44;;;18.40;52.93
16255;BME280;8235;52.198;9.904;2022-10-04T13:50:42;101217.16;;;18.43;52.88
16255;BME280;8235;52.198;9.904;2022-10-04T13:53:26;101213.06;;;18.49;52.93
16255;BME280;8235;52.198;9.904;2022-10-04T13:56:36;101206.41;;;18.53;52.85
16255;BME280;8235;52.198;9.904;2022-10-04T13:59:10;101208.97;;;18.54;52.32
16255;BME280;8235;52.198;9.904;2022-10-04T14:02:11;101198.31;;;18.53;52.00
16255;BME280;8235;52.198;9.904;2022-10-04T14:11:21;101197.56;;;18.62;52.10
16255;BME280;8235;52.198;9.904;2022-10-04T14:17:26;101196.56;;;18.63;52.01
16255;BME280;8235;52.198;9.904;2022-10-04T14:20:41;101189.28;;;18.63;52.09
16255;BME280;8235;52.198;9.904;2022-10-04T14:23:33;101188.16;;;18.66;52.26
16255;BME280;8235;52.198;9.904;2022-10-04T14:26:20;101182.91;;;18.64;52.61
16255;BME280;8235;52.198;9.904;2022-10-04T14:29:19;101173.09;;;18.63;52.77
16255;BME280;8235;52.198;9.904;2022-10-04T14:32:24;101176.66;;;18.64;52.84
16255;BME280;8235;52.198;9.904;2022-10-04T14:34:58;101176.66;;;18.64;52.97
16255;BME280;8235;52.198;9.904;2022-10-04T14:37:52;101170.41;;;18.63;53.12
16255;BME280;8235;52.198;9.904;2022-10-04T14:41:01;101161.31;;;18.64;53.13
16255;BME280;8235;52.198;9.904;2022-10-04T14:46:40;101158.78;;;18.63;52.68
16255;BME280;8235;52.198;9.904;2022-10-04T14:49:19;101159.63;;;18.63;52.92
16255;BME280;8235;52.198;9.904;2022-10-04T14:52:01;101158.63;;;18.64;53.07
16255;BME280;8235;52.198;9.904;2022-10-04T14:54:43;101159.63;;;18.63;53.00
16255;BME280;8235;52.198;9.904;2022-10-04T14:57:23;101165.19;;;18.62;53.13
16255;BME280;8235;52.198;9.904;2022-10-04T15:00:04;101159.06;;;18.60;52.72
16255;BME280;8235;52.198;9.904;2022-10-04T15:03:08;101152.19;;;18.56;52.72
16255;BME280;8235;52.198;9.904;2022-10-04T15:05:44;101149.91;;;18.51;52.83
16255;BME280;8235;52.198;9.904;2022-10-04T15:08:40;101151.00;;;18.49;52.94
16255;BME280;8235;52.198;9.904;2022-10-04T15:11:13;101150.44;;;18.45;53.07